sensor_id;sensor_type;location;lat;lon;timestamp;P1;durP1;ratioP1;P2;durP2;ratioP2
3633;SDS011;1833;42.718;23.270;2023-04-15T00:00:22;29.53;;;26.53;;
3633;SDS011;1833;42.718;23.270;2023-04-15T00:02:50;28.63;;;26.17;;
3633;SDS011;1833;42.718;23.270;2023-04-15T00:05:18;28.20;;;25.37;;
3633;SDS011;1833;42.718;23.270;2023-04-15T00:07:46;27.27;;;25.00;;
3633;SDS011;1833;42.718;23.270;2023-04-15T00:10:13;27.07;;;24.77;;
3633;SDS011;1833;42.718;23.270;2023-04-15T00:12:40;27.50;;;25.10;;
3633;SDS011;1833;42.718;23.270;2023-04-15T00:15:08;26.87;;;24.47;;
3633;SDS011;1833;42.718;23.270;2023-04-15T00:17:36;26.87;;;24.73;;
3633;SDS011;1833;42.718;23.270;2023-04-15T00:20:04;27.00;;;24.90;;
3633;SDS011;1833;42.718;23.270;2023-04-15T00:22:33;28.20;;;25.60;;
3633;SDS011;1833;42.718;23.270;2023-04-15T00:25:00;28.77;;;26.03;;
3633;SDS011;1833;42.718;23.270;2023-04-15T00:27:28;26.83;;;24.47;;
3633;SDS011;1833;42.718;23.270;2023-04-15T00:29:55;31.50;;;27.10;;
3633;SDS011;1833;42.718;23.270;2023-04-15T00:32:22;26.93;;;24.77;;
3633;SDS011;1833;42.718;23.270;2023-04-15T00:34:50;28.93;;;26.30;;
3633;SDS011;1833;42.718;23.270;2023-04-15T00:37:17;28.10;;;25.60;;
3633;SDS011;1833;42.718;23.270;2023-04-15T00:39:46;26.67;;;24.60;;
3633;SDS011;1833;42.718;23.270;2023-04-15T00:42:13;28.77;;;26.17;;
3633;SDS011;1833;42.718;23.270;2023-04-15T00:44:41;31.20;;;28.03;;
3633;SDS011;1833;42.718;23.270;2023-04-15T00:47:08;30.83;;;27.57;;
3633;SDS011;1833;42.718;23.270;2023-04-15T00:49:35;27.20;;;24.63;;
3633;SDS011;1833;42.718;23.270;2023-04-15T00:52:03;26.90;;;24.63;;
3633;SDS011;1833;42.718;23.270;2023-04-15T00:54:30;29.93;;;26.37;;
3633;SDS011;1833;42.718;23.270;2023-04-15T00:56:59;27.90;;;25.53;;
3633;SDS011;1833;42.718;23.270;2023-04-15T00:59:26;29.90;;;26.80;;
3633;SDS011;1833;42.718;23.270;2023-04-15T01:01:53;28.10;;;25.87;;
3633;SDS011;1833;42.718;23.270;2023-04-15T01:04:21;27.00;;;24.60;;
3633;SDS011;1833;42.718;23.270;2023-04-15T01:06:48;27.33;;;25.13;;
3633;SDS011;1833;42.718;23.270;2023-04-15T01:09:16;28.03;;;25.07;;
3633;SDS011;1833;42.718;23.270;2023-04-15T01:11:43;29.37;;;26.57;;
3633;SDS011;1833;42.718;23.270;2023-04-15T01:14:12;28.90;;;26.10;;
3633;SDS011;1833;42.718;23.270;2023-04-15T01:16:40;29.13;;;26.63;;
3633;SDS011;1833;42.718;23.270;2023-04-15T01:19:09;29.57;;;27.17;;
3633;SDS011;1833;42.718;23.270;2023-04-15T01:21:37;28.77;;;26.30;;
3633;SDS011;1833;42.718;23.270;2023-04-15T01:24:07;27.20;;;24.80;;
3633;SDS011;1833;42.718;23.270;2023-04-15T01:26:36;29.77;;;27.00;;
3633;SDS011;1833;42.718;23.270;2023-04-15T01:29:03;29.13;;;26.40;;
3633;SDS011;1833;42.718;23.270;2023-04-15T01:31:31;29.17;;;26.43;;
3633;SDS011;1833;42.718;23.270;2023-04-15T01:33:58;29.00;;;26.30;;
3633;SDS011;1833;42.718;23.270;2023-04-15T01:36:26;29.50;;;26.90;;
3633;SDS011;1833;42.718;23.270;2023-04-15T01:38:54;28.87;;;26.47;;
3633;SDS011;1833;42.718;23.270;2023-04-15T01:41:23;28.80;;;26.13;;
3633;SDS011;1833;42.718;23.270;2023-04-15T01:43:52;29.97;;;27.27;;
3633;SDS011;1833;42.718;23.270;2023-04-15T01:46:19;35.40;;;29.10;;
3633;SDS011;1833;42.718;23.270;2023-04-15T01:48:47;30.83;;;28.10;;
3633;SDS011;1833;42.718;23.270;2023-04-15T01:51:14;31.40;;;28.47;;
3633;SDS011;1833;42.718;23.270;2023-04-15T01:53:41;31.63;;;28.53;;
3633;SDS011;1833;42.718;23.270;2023-04-15T01:56:08;31.77;;;28.67;;
3633;SDS011;1833;42.718;23.270;2023-04-15T01:58:36;30.70;;;27.60;;
3633;SDS011;1833;42.718;23.270;2023-04-15T02:01:05;34.20;;;28.20;;
3633;SDS011;1833;42.718;23.270;2023-04-15T02:03:34;30.37;;;27.60;;
3633;SDS011;1833;42.718;23.270;2023-04-15T02:06:01;30.03;;;27.33;;
3633;SDS011;1833;42.718;23.270;2023-04-15T02:08:30;28.70;;;26.07;;
3633;SDS011;1833;42.718;23.270;2023-04-15T02:10:57;31.57;;;28.63;;
3633;SDS011;1833;42.718;23.270;2023-04-15T02:13:25;31.27;;;28.00;;
3633;SDS011;1833;42.718;23.270;2023-04-15T02:15:53;29.80;;;26.80;;
3633;SDS011;1833;42.718;23.270;2023-04-15T02:18:22;34.80;;;25.97;;
3633;SDS011;1833;42.718;23.270;2023-04-15T02:20:50;29.20;;;26.53;;
3633;SDS011;1833;42.718;23.270;2023-04-15T02:23:17;29.47;;;26.77;;
3633;SDS011;1833;42.718;23.270;2023-04-15T02:25:44;30.10;;;26.90;;
3633;SDS011;1833;42.718;23.270;2023-04-15T02:28:12;29.73;;;26.70;;
3633;SDS011;1833;42.718;23.270;2023-04-15T02:30:39;30.40;;;27.33;;
3633;SDS011;1833;42.718;23.270;2023-04-15T02:33:06;30.37;;;27.47;;
3633;SDS011;1833;42.718;23.270;2023-04-15T02:35:35;28.90;;;26.20;;
3633;SDS011;1833;42.718;23.270;2023-04-15T02:38:06;28.50;;;25.90;;
3633;SDS011;1833;42.718;23.270;2023-04-15T02:40:33;28.80;;;26.00;;
3633;SDS011;1833;42.718;23.270;2023-04-15T02:43:00;26.57;;;24.10;;
3633;SDS011;1833;42.718;23.270;2023-04-15T02:45:29;28.43;;;25.47;;
3633;SDS011;1833;42.718;23.270;2023-04-15T02:47:56;24.80;;;23.00;;
3633;SDS011;1833;42.718;23.270;2023-04-15T02:50:25;28.50;;;25.83;;
3633;SDS011;1833;42.718;23.270;2023-04-15T02:52:54;25.37;;;23.47;;
3633;SDS011;1833;42.718;23.270;2023-04-15T02:55:21;26.00;;;23.83;;
3633;SDS011;1833;42.718;23.270;2023-04-15T02:57:49;27.07;;;24.87;;
3633;SDS011;1833;42.718;23.270;2023-04-15T03:00:16;26.77;;;24.57;;
3633;SDS011;1833;42.718;23.270;2023-04-15T03:02:44;26.43;;;24.23;;
3633;SDS011;1833;42.718;23.270;2023-04-15T03:05:12;25.20;;;23.10;;
3633;SDS011;1833;42.718;23.270;2023-04-15T03:07:39;26.90;;;24.20;;
3633;SDS011;1833;42.718;23.270;2023-04-15T03:10:09;26.27;;;23.97;;
3633;SDS011;1833;42.718;23.270;2023-04-15T03:12:36;26.40;;;24.10;;
3633;SDS011;1833;42.718;23.270;2023-04-15T03:15:03;25.50;;;23.40;;
3633;SDS011;1833;42.718;23.270;2023-04-15T03:17:31;27.37;;;24.83;;
3633;SDS011;1833;42.718;23.270;2023-04-15T03:19:58;26.60;;;24.30;;
3633;SDS011;1833;42.718;23.270;2023-04-15T03:22:25;24.53;;;22.43;;
3633;SDS011;1833;42.718;23.270;2023-04-15T03:24:53;25.60;;;23.63;;
3633;SDS011;1833;42.718;23.270;2023-04-15T03:27:21;25.80;;;23.33;;
3633;SDS011;1833;42.718;23.270;2023-04-15T03:29:48;25.73;;;23.57;;
3633;SDS011;1833;42.718;23.270;2023-04-15T03:32:16;26.57;;;24.27;;
3633;SDS011;1833;42.718;23.270;2023-04-15T03:34:43;25.23;;;23.03;;
3633;SDS011;1833;42.718;23.270;2023-04-15T03:37:10;26.87;;;24.10;;
3633;SDS011;1833;42.718;23.270;2023-04-15T03:39:38;26.73;;;24.33;;
3633;SDS011;1833;42.718;23.270;2023-04-15T03:42:05;25.27;;;23.20;;
3633;SDS011;1833;42.718;23.270;2023-04-15T03:44:34;29.00;;;22.83;;
3633;SDS011;1833;42.718;23.270;2023-04-15T03:47:01;24.17;;;22.20;;
3633;SDS011;1833;42.718;23.270;2023-04-15T03:49:28;26.90;;;24.40;;
3633;SDS011;1833;42.718;23.270;2023-04-15T03:51:56;23.83;;;21.63;;
3633;SDS011;1833;42.718;23.270;2023-04-15T03:54:23;24.83;;;22.80;;
3633;SDS011;1833;42.718;23.270;2023-04-15T03:56:51;23.40;;;21.40;;
3633;SDS011;1833;42.718;23.270;2023-04-15T03:59:18;23.53;;;21.53;;
3633;SDS011;1833;42.718;23.270;2023-04-15T04:01:46;25.57;;;22.80;;
3633;SDS011;1833;42.718;23.270;2023-04-15T04:04:14;24.57;;;22.37;;
3633;SDS011;1833;42.718;23.270;2023-04-15T04:06:41;24.90;;;23.00;;
3633;SDS011;1833;42.718;23.270;2023-04-15T04:09:08;25.53;;;23.17;;
3633;SDS011;1833;42.718;23.270;2023-04-15T04:11:35;23.93;;;21.77;;
3633;SDS011;1833;42.718;23.270;2023-04-15T04:14:03;23.80;;;21.70;;
3633;SDS011;1833;42.718;23.270;2023-04-15T04:16:30;24.27;;;21.93;;
3633;SDS011;1833;42.718;23.270;2023-04-15T04:18:58;24.60;;;22.37;;
3633;SDS011;1833;42.718;23.270;2023-04-15T04:21:26;25.93;;;23.63;;
3633;SDS011;1833;42.718;23.270;2023-04-15T04:23:53;23.90;;;21.93;;
3633;SDS011;1833;42.718;23.270;2023-04-15T04:26:23;25.83;;;23.40;;
3633;SDS011;1833;42.718;23.270;2023-04-15T04:28:51;25.10;;;22.80;;
3633;SDS011;1833;42.718;23.270;2023-04-15T04:31:18;24.60;;;22.33;;
3633;SDS011;1833;42.718;23.270;2023-04-15T04:33:45;23.77;;;21.57;;
3633;SDS011;1833;42.718;23.270;2023-04-15T04:36:14;25.03;;;22.60;;
3633;SDS011;1833;42.718;23.270;2023-04-15T04:38:41;27.47;;;25.00;;
3633;SDS011;1833;42.718;23.270;2023-04-15T04:41:09;27.97;;;25.50;;
3633;SDS011;1833;42.718;23.270;2023-04-15T04:43:36;28.70;;;26.10;;
3633;SDS011;1833;42.718;23.270;2023-04-15T04:46:03;29.87;;;27.13;;
3633;SDS011;1833;42.718;23.270;2023-04-15T04:48:30;31.37;;;28.00;;
3633;SDS011;1833;42.718;23.270;2023-04-15T04:50:58;33.03;;;27.60;;
3633;SDS011;1833;42.718;23.270;2023-04-15T04:53:26;29.63;;;27.03;;
3633;SDS011;1833;42.718;23.270;2023-04-15T04:55:54;30.33;;;27.50;;
3633;SDS011;1833;42.718;23.270;2023-04-15T04:58:21;32.57;;;29.10;;
3633;SDS011;1833;42.718;23.270;2023-04-15T05:00:48;31.83;;;28.77;;
3633;SDS011;1833;42.718;23.270;2023-04-15T05:03:15;32.07;;;28.80;;
3633;SDS011;1833;42.718;23.270;2023-04-15T05:05:43;31.57;;;28.77;;
3633;SDS011;1833;42.718;23.270;2023-04-15T05:08:10;31.43;;;28.33;;
3633;SDS011;1833;42.718;23.270;2023-04-15T05:10:39;33.53;;;30.20;;
3633;SDS011;1833;42.718;23.270;2023-04-15T05:13:06;32.03;;;28.93;;
3633;SDS011;1833;42.718;23.270;2023-04-15T05:15:33;30.83;;;27.83;;
3633;SDS011;1833;42.718;23.270;2023-04-15T05:18:03;33.03;;;28.83;;
3633;SDS011;1833;42.718;23.270;2023-04-15T05:20:31;31.57;;;28.43;;
3633;SDS011;1833;42.718;23.270;2023-04-15T05:22:58;32.23;;;29.23;;
3633;SDS011;1833;42.718;23.270;2023-04-15T05:25:25;31.43;;;28.53;;
3633;SDS011;1833;42.718;23.270;2023-04-15T05:27:56;30.73;;;27.80;;
3633;SDS011;1833;42.718;23.270;2023-04-15T05:30:24;33.07;;;29.70;;
3633;SDS011;1833;42.718;23.270;2023-04-15T05:32:53;34.33;;;30.40;;
3633;SDS011;1833;42.718;23.270;2023-04-15T05:35:20;35.43;;;31.10;;
3633;SDS011;1833;42.718;23.270;2023-04-15T05:37:47;37.10;;;30.30;;
3633;SDS011;1833;42.718;23.270;2023-04-15T05:40:14;33.73;;;30.53;;
3633;SDS011;1833;42.718;23.270;2023-04-15T05:42:42;34.20;;;30.50;;
3633;SDS011;1833;42.718;23.270;2023-04-15T05:45:11;33.60;;;30.30;;
3633;SDS011;1833;42.718;23.270;2023-04-15T05:47:38;32.70;;;29.30;;
3633;SDS011;1833;42.718;23.270;2023-04-15T05:50:06;33.03;;;29.60;;
3633;SDS011;1833;42.718;23.270;2023-04-15T05:52:34;33.93;;;30.53;;
3633;SDS011;1833;42.718;23.270;2023-04-15T05:55:01;32.93;;;29.53;;
3633;SDS011;1833;42.718;23.270;2023-04-15T05:57:28;37.93;;;29.73;;
3633;SDS011;1833;42.718;23.270;2023-04-15T05:59:56;31.40;;;27.90;;
3633;SDS011;1833;42.718;23.270;2023-04-15T06:02:24;32.30;;;29.03;;
3633;SDS011;1833;42.718;23.270;2023-04-15T06:04:52;37.23;;;30.43;;
3633;SDS011;1833;42.718;23.270;2023-04-15T06:07:19;34.47;;;30.83;;
3633;SDS011;1833;42.718;23.270;2023-04-15T06:09:46;32.60;;;29.53;;
3633;SDS011;1833;42.718;23.270;2023-04-15T06:12:13;30.77;;;27.87;;
3633;SDS011;1833;42.718;23.270;2023-04-15T06:14:41;32.67;;;29.37;;
3633;SDS011;1833;42.718;23.270;2023-04-15T06:17:08;32.73;;;29.50;;
3633;SDS011;1833;42.718;23.270;2023-04-15T06:19:37;31.90;;;28.70;;
3633;SDS011;1833;42.718;23.270;2023-04-15T06:22:04;33.23;;;29.03;;
3633;SDS011;1833;42.718;23.270;2023-04-15T06:24:32;33.43;;;30.13;;
3633;SDS011;1833;42.718;23.270;2023-04-15T06:27:01;33.23;;;29.70;;
3633;SDS011;1833;42.718;23.270;2023-04-15T06:29:28;33.03;;;29.93;;
3633;SDS011;1833;42.718;23.270;2023-04-15T06:31:55;34.00;;;30.30;;
3633;SDS011;1833;42.718;23.270;2023-04-15T06:34:23;41.90;;;36.93;;
3633;SDS011;1833;42.718;23.270;2023-04-15T06:36:51;34.60;;;30.93;;
3633;SDS011;1833;42.718;23.270;2023-04-15T06:39:20;41.93;;;37.23;;
3633;SDS011;1833;42.718;23.270;2023-04-15T06:41:47;49.77;;;40.37;;
3633;SDS011;1833;42.718;23.270;2023-04-15T06:44:15;32.93;;;29.90;;
3633;SDS011;1833;42.718;23.270;2023-04-15T06:46:42;36.10;;;32.50;;
3633;SDS011;1833;42.718;23.270;2023-04-15T06:49:10;57.90;;;43.73;;
3633;SDS011;1833;42.718;23.270;2023-04-15T06:51:37;82.07;;;61.47;;
3633;SDS011;1833;42.718;23.270;2023-04-15T06:54:06;40.50;;;33.57;;
3633;SDS011;1833;42.718;23.270;2023-04-15T06:56:33;51.97;;;38.50;;
3633;SDS011;1833;42.718;23.270;2023-04-15T06:59:01;31.30;;;28.17;;
3633;SDS011;1833;42.718;23.270;2023-04-15T07:01:28;33.80;;;30.20;;
3633;SDS011;1833;42.718;23.270;2023-04-15T07:03:55;36.50;;;32.83;;
3633;SDS011;1833;42.718;23.270;2023-04-15T07:06:23;33.43;;;29.63;;
3633;SDS011;1833;42.718;23.270;2023-04-15T07:08:51;33.60;;;29.97;;
3633;SDS011;1833;42.718;23.270;2023-04-15T07:11:21;31.80;;;28.23;;
3633;SDS011;1833;42.718;23.270;2023-04-15T07:13:50;30.73;;;27.43;;
3633;SDS011;1833;42.718;23.270;2023-04-15T07:16:18;30.73;;;27.53;;
3633;SDS011;1833;42.718;23.270;2023-04-15T07:18:45;30.20;;;27.20;;
3633;SDS011;1833;42.718;23.270;2023-04-15T07:21:12;29.43;;;26.63;;
3633;SDS011;1833;42.718;23.270;2023-04-15T07:23:40;29.20;;;26.30;;
3633;SDS011;1833;42.718;23.270;2023-04-15T07:26:08;28.70;;;26.20;;
3633;SDS011;1833;42.718;23.270;2023-04-15T07:28:36;28.93;;;26.43;;
3633;SDS011;1833;42.718;23.270;2023-04-15T07:31:04;29.13;;;26.43;;
3633;SDS011;1833;42.718;23.270;2023-04-15T07:33:31;29.80;;;27.00;;
3633;SDS011;1833;42.718;23.270;2023-04-15T07:35:59;29.13;;;26.53;;
3633;SDS011;1833;42.718;23.270;2023-04-15T07:38:26;29.63;;;27.03;;
3633;SDS011;1833;42.718;23.270;2023-04-15T07:40:54;33.40;;;27.60;;
3633;SDS011;1833;42.718;23.270;2023-04-15T07:43:22;30.03;;;26.97;;
3633;SDS011;1833;42.718;23.270;2023-04-15T07:45:51;30.23;;;27.43;;
3633;SDS011;1833;42.718;23.270;2023-04-15T07:48:19;35.63;;;31.60;;
3633;SDS011;1833;42.718;23.270;2023-04-15T07:50:46;37.03;;;33.10;;
3633;SDS011;1833;42.718;23.270;2023-04-15T07:53:14;33.43;;;30.17;;
3633;SDS011;1833;42.718;23.270;2023-04-15T07:55:41;29.33;;;26.43;;
3633;SDS011;1833;42.718;23.270;2023-04-15T07:58:08;30.00;;;27.00;;
3633;SDS011;1833;42.718;23.270;2023-04-15T08:00:36;28.93;;;26.20;;
3633;SDS011;1833;42.718;23.270;2023-04-15T08:03:05;27.23;;;24.73;;
3633;SDS011;1833;42.718;23.270;2023-04-15T08:05:32;28.10;;;25.67;;
3633;SDS011;1833;42.718;23.270;2023-04-15T08:07:59;26.70;;;24.40;;
3633;SDS011;1833;42.718;23.270;2023-04-15T08:10:29;28.33;;;25.67;;
3633;SDS011;1833;42.718;23.270;2023-04-15T08:12:56;27.10;;;24.70;;
3633;SDS011;1833;42.718;23.270;2023-04-15T08:15:24;27.70;;;25.30;;
3633;SDS011;1833;42.718;23.270;2023-04-15T08:17:52;29.80;;;26.87;;
3633;SDS011;1833;42.718;23.270;2023-04-15T08:20:21;32.63;;;29.50;;
3633;SDS011;1833;42.718;23.270;2023-04-15T08:22:48;40.00;;;30.20;;
3633;SDS011;1833;42.718;23.270;2023-04-15T08:25:18;27.07;;;24.77;;
3633;SDS011;1833;42.718;23.270;2023-04-15T08:27:45;27.30;;;24.80;;
3633;SDS011;1833;42.718;23.270;2023-04-15T08:30:12;26.67;;;24.27;;
3633;SDS011;1833;42.718;23.270;2023-04-15T08:32:41;26.47;;;24.00;;
3633;SDS011;1833;42.718;23.270;2023-04-15T08:35:09;28.67;;;25.80;;
3633;SDS011;1833;42.718;23.270;2023-04-15T08:37:38;30.43;;;27.40;;
3633;SDS011;1833;42.718;23.270;2023-04-15T08:40:06;26.67;;;24.57;;
3633;SDS011;1833;42.718;23.270;2023-04-15T08:42:35;27.70;;;25.33;;
3633;SDS011;1833;42.718;23.270;2023-04-15T08:45:03;29.07;;;26.40;;
3633;SDS011;1833;42.718;23.270;2023-04-15T08:47:32;28.23;;;25.63;;
3633;SDS011;1833;42.718;23.270;2023-04-15T08:50:01;27.93;;;25.53;;
3633;SDS011;1833;42.718;23.270;2023-04-15T08:52:29;28.40;;;25.70;;
3633;SDS011;1833;42.718;23.270;2023-04-15T08:54:58;26.87;;;24.57;;
3633;SDS011;1833;42.718;23.270;2023-04-15T08:57:26;28.43;;;25.70;;
3633;SDS011;1833;42.718;23.270;2023-04-15T08:59:54;52.33;;;41.13;;
3633;SDS011;1833;42.718;23.270;2023-04-15T09:02:22;42.17;;;37.43;;
3633;SDS011;1833;42.718;23.270;2023-04-15T09:04:49;30.07;;;27.30;;
3633;SDS011;1833;42.718;23.270;2023-04-15T09:07:17;28.87;;;26.47;;
3633;SDS011;1833;42.718;23.270;2023-04-15T09:09:44;29.60;;;26.03;;
3633;SDS011;1833;42.718;23.270;2023-04-15T09:12:12;27.57;;;25.17;;
3633;SDS011;1833;42.718;23.270;2023-04-15T09:14:41;27.07;;;24.70;;
3633;SDS011;1833;42.718;23.270;2023-04-15T09:17:09;27.40;;;25.00;;
3633;SDS011;1833;42.718;23.270;2023-04-15T09:19:37;27.10;;;24.80;;
3633;SDS011;1833;42.718;23.270;2023-04-15T09:22:04;26.83;;;24.63;;
3633;SDS011;1833;42.718;23.270;2023-04-15T09:24:35;26.67;;;24.47;;
3633;SDS011;1833;42.718;23.270;2023-04-15T09:27:03;26.83;;;24.53;;
3633;SDS011;1833;42.718;23.270;2023-04-15T09:29:32;28.60;;;26.03;;
3633;SDS011;1833;42.718;23.270;2023-04-15T09:32:10;27.97;;;25.50;;
3633;SDS011;1833;42.718;23.270;2023-04-15T09:34:38;33.60;;;30.33;;
3633;SDS011;1833;42.718;23.270;2023-04-15T09:37:05;27.33;;;25.03;;
3633;SDS011;1833;42.718;23.270;2023-04-15T09:39:44;26.43;;;24.23;;
3633;SDS011;1833;42.718;23.270;2023-04-15T09:42:12;27.20;;;24.33;;
3633;SDS011;1833;42.718;23.270;2023-04-15T09:44:43;27.40;;;25.17;;
3633;SDS011;1833;42.718;23.270;2023-04-15T09:47:20;27.43;;;25.07;;
3633;SDS011;1833;42.718;23.270;2023-04-15T09:49:56;32.30;;;29.30;;
3633;SDS011;1833;42.718;23.270;2023-04-15T09:52:23;26.97;;;24.67;;
3633;SDS011;1833;42.718;23.270;2023-04-15T09:54:52;30.90;;;27.80;;
3633;SDS011;1833;42.718;23.270;2023-04-15T09:57:20;29.20;;;26.80;;
3633;SDS011;1833;42.718;23.270;2023-04-15T09:59:52;26.83;;;24.13;;
3633;SDS011;1833;42.718;23.270;2023-04-15T10:02:19;32.57;;;29.47;;
3633;SDS011;1833;42.718;23.270;2023-04-15T10:04:48;28.70;;;26.00;;
3633;SDS011;1833;42.718;23.270;2023-04-15T10:07:16;29.67;;;26.70;;
3633;SDS011;1833;42.718;23.270;2023-04-15T10:09:44;28.63;;;26.03;;
3633;SDS011;1833;42.718;23.270;2023-04-15T10:12:12;31.03;;;28.20;;
3633;SDS011;1833;42.718;23.270;2023-04-15T10:14:40;27.33;;;25.03;;
3633;SDS011;1833;42.718;23.270;2023-04-15T10:17:10;28.77;;;26.27;;
3633;SDS011;1833;42.718;23.270;2023-04-15T10:19:38;31.03;;;28.03;;
3633;SDS011;1833;42.718;23.270;2023-04-15T10:22:06;28.40;;;26.10;;
3633;SDS011;1833;42.718;23.270;2023-04-15T10:24:33;26.40;;;24.27;;
3633;SDS011;1833;42.718;23.270;2023-04-15T10:27:02;26.97;;;24.77;;
3633;SDS011;1833;42.718;23.270;2023-04-15T10:29:29;26.63;;;24.43;;
3633;SDS011;1833;42.718;23.270;2023-04-15T10:31:57;26.57;;;24.37;;
3633;SDS011;1833;42.718;23.270;2023-04-15T10:34:26;28.07;;;25.73;;
3633;SDS011;1833;42.718;23.270;2023-04-15T10:36:54;27.73;;;25.33;;
3633;SDS011;1833;42.718;23.270;2023-04-15T10:42:06;29.50;;;26.90;;
3633;SDS011;1833;42.718;23.270;2023-04-15T10:44:35;27.67;;;24.97;;
3633;SDS011;1833;42.718;23.270;2023-04-15T10:47:05;29.10;;;26.50;;
3633;SDS011;1833;42.718;23.270;2023-04-15T10:49:36;33.07;;;29.67;;
3633;SDS011;1833;42.718;23.270;2023-04-15T10:52:09;27.37;;;25.07;;
3633;SDS011;1833;42.718;23.270;2023-04-15T10:54:36;27.27;;;24.97;;
3633;SDS011;1833;42.718;23.270;2023-04-15T10:57:08;27.27;;;24.90;;
3633;SDS011;1833;42.718;23.270;2023-04-15T10:59:38;27.10;;;24.30;;
3633;SDS011;1833;42.718;23.270;2023-04-15T11:02:05;26.97;;;24.67;;
3633;SDS011;1833;42.718;23.270;2023-04-15T11:04:53;26.50;;;24.00;;
3633;SDS011;1833;42.718;23.270;2023-04-15T11:07:34;28.23;;;25.77;;
3633;SDS011;1833;42.718;23.270;2023-04-15T11:10:03;26.03;;;23.93;;
3633;SDS011;1833;42.718;23.270;2023-04-15T11:12:34;25.53;;;23.33;;
3633;SDS011;1833;42.718;23.270;2023-04-15T11:17:43;29.83;;;24.03;;
3633;SDS011;1833;42.718;23.270;2023-04-15T11:20:15;27.10;;;24.60;;
3633;SDS011;1833;42.718;23.270;2023-04-15T11:22:46;26.87;;;24.37;;
3633;SDS011;1833;42.718;23.270;2023-04-15T11:25:20;27.83;;;25.20;;
3633;SDS011;1833;42.718;23.270;2023-04-15T11:27:48;28.33;;;25.40;;
3633;SDS011;1833;42.718;23.270;2023-04-15T11:30:17;26.93;;;24.63;;
3633;SDS011;1833;42.718;23.270;2023-04-15T11:32:45;26.63;;;24.43;;
3633;SDS011;1833;42.718;23.270;2023-04-15T11:35:14;26.93;;;24.40;;
3633;SDS011;1833;42.718;23.270;2023-04-15T11:37:42;26.80;;;24.60;;
3633;SDS011;1833;42.718;23.270;2023-04-15T11:40:09;27.20;;;24.80;;
3633;SDS011;1833;42.718;23.270;2023-04-15T11:42:37;28.60;;;26.10;;
3633;SDS011;1833;42.718;23.270;2023-04-15T11:45:07;27.50;;;25.03;;
3633;SDS011;1833;42.718;23.270;2023-04-15T11:47:35;27.83;;;25.30;;
3633;SDS011;1833;42.718;23.270;2023-04-15T11:52:54;28.43;;;25.87;;
3633;SDS011;1833;42.718;23.270;2023-04-15T11:55:21;26.90;;;24.70;;
3633;SDS011;1833;42.718;23.270;2023-04-15T11:57:49;31.53;;;25.33;;
3633;SDS011;1833;42.718;23.270;2023-04-15T12:00:16;27.30;;;25.00;;
3633;SDS011;1833;42.718;23.270;2023-04-15T12:02:46;27.57;;;25.03;;
3633;SDS011;1833;42.718;23.270;2023-04-15T12:05:13;26.70;;;24.30;;
3633;SDS011;1833;42.718;23.270;2023-04-15T12:07:57;27.07;;;24.67;;
3633;SDS011;1833;42.718;23.270;2023-04-15T12:10:25;27.50;;;25.10;;
3633;SDS011;1833;42.718;23.270;2023-04-15T12:12:52;27.80;;;25.20;;
3633;SDS011;1833;42.718;23.270;2023-04-15T12:15:20;26.70;;;24.43;;
3633;SDS011;1833;42.718;23.270;2023-04-15T12:17:52;27.47;;;24.87;;
3633;SDS011;1833;42.718;23.270;2023-04-15T12:20:23;27.57;;;25.13;;
3633;SDS011;1833;42.718;23.270;2023-04-15T12:22:51;27.00;;;24.70;;
3633;SDS011;1833;42.718;23.270;2023-04-15T12:25:20;26.83;;;24.53;;
3633;SDS011;1833;42.718;23.270;2023-04-15T12:27:58;26.37;;;24.10;;
3633;SDS011;1833;42.718;23.270;2023-04-15T12:30:27;27.07;;;24.87;;
3633;SDS011;1833;42.718;23.270;2023-04-15T12:32:54;26.77;;;24.50;;
3633;SDS011;1833;42.718;23.270;2023-04-15T12:35:21;27.40;;;24.70;;
3633;SDS011;1833;42.718;23.270;2023-04-15T12:37:48;26.60;;;24.30;;
3633;SDS011;1833;42.718;23.270;2023-04-15T12:40:16;26.90;;;24.70;;
3633;SDS011;1833;42.718;23.270;2023-04-15T12:42:45;27.30;;;24.70;;
3633;SDS011;1833;42.718;23.270;2023-04-15T12:45:12;27.93;;;25.43;;
3633;SDS011;1833;42.718;23.270;2023-04-15T12:47:40;26.97;;;24.63;;
3633;SDS011;1833;42.718;23.270;2023-04-15T12:50:07;27.07;;;24.70;;
3633;SDS011;1833;42.718;23.270;2023-04-15T12:52:34;26.20;;;24.00;;
3633;SDS011;1833;42.718;23.270;2023-04-15T12:55:02;26.43;;;24.13;;
3633;SDS011;1833;42.718;23.270;2023-04-15T12:57:29;26.70;;;24.53;;
3633;SDS011;1833;42.718;23.270;2023-04-15T12:59:58;27.17;;;24.90;;
3633;SDS011;1833;42.718;23.270;2023-04-15T13:02:25;27.10;;;24.90;;
3633;SDS011;1833;42.718;23.270;2023-04-15T13:04:53;26.50;;;24.40;;
3633;SDS011;1833;42.718;23.270;2023-04-15T13:07:20;25.73;;;23.63;;
3633;SDS011;1833;42.718;23.270;2023-04-15T13:09:47;26.40;;;24.03;;
3633;SDS011;1833;42.718;23.270;2023-04-15T13:12:15;26.90;;;24.60;;
3633;SDS011;1833;42.718;23.270;2023-04-15T13:14:42;26.20;;;23.90;;
3633;SDS011;1833;42.718;23.270;2023-04-15T13:17:11;27.13;;;24.83;;
3633;SDS011;1833;42.718;23.270;2023-04-15T13:19:38;27.27;;;25.07;;
3633;SDS011;1833;42.718;23.270;2023-04-15T13:22:06;26.73;;;24.20;;
3633;SDS011;1833;42.718;23.270;2023-04-15T13:24:34;27.07;;;24.47;;
3633;SDS011;1833;42.718;23.270;2023-04-15T13:27:01;26.00;;;23.77;;
3633;SDS011;1833;42.718;23.270;2023-04-15T13:29:29;25.90;;;23.70;;
3633;SDS011;1833;42.718;23.270;2023-04-15T13:31:56;26.57;;;24.17;;
3633;SDS011;1833;42.718;23.270;2023-04-15T13:34:26;26.50;;;24.30;;
3633;SDS011;1833;42.718;23.270;2023-04-15T13:36:54;27.15;;;24.65;;
3633;SDS011;1833;42.718;23.270;2023-04-15T13:39:21;26.70;;;24.20;;
3633;SDS011;1833;42.718;23.270;2023-04-15T13:41:48;27.33;;;24.40;;
3633;SDS011;1833;42.718;23.270;2023-04-15T13:44:15;26.37;;;24.07;;
3633;SDS011;1833;42.718;23.270;2023-04-15T13:46:43;27.63;;;24.87;;
3633;SDS011;1833;42.718;23.270;2023-04-15T13:49:10;26.50;;;24.30;;
3633;SDS011;1833;42.718;23.270;2023-04-15T13:51:39;26.93;;;24.53;;
3633;SDS011;1833;42.718;23.270;2023-04-15T13:54:06;26.20;;;24.00;;
3633;SDS011;1833;42.718;23.270;2023-04-15T13:56:33;26.20;;;23.90;;
3633;SDS011;1833;42.718;23.270;2023-04-15T13:59:01;26.73;;;24.47;;
3633;SDS011;1833;42.718;23.270;2023-04-15T14:01:28;26.90;;;24.40;;
3633;SDS011;1833;42.718;23.270;2023-04-15T14:03:55;26.80;;;24.40;;
3633;SDS011;1833;42.718;23.270;2023-04-15T14:06:23;26.10;;;23.80;;
3633;SDS011;1833;42.718;23.270;2023-04-15T14:08:53;26.17;;;23.80;;
3633;SDS011;1833;42.718;23.270;2023-04-15T14:11:20;26.83;;;24.53;;
3633;SDS011;1833;42.718;23.270;2023-04-15T14:13:47;28.83;;;26.23;;
3633;SDS011;1833;42.718;23.270;2023-04-15T14:16:15;36.33;;;30.33;;
3633;SDS011;1833;42.718;23.270;2023-04-15T14:18:42;28.33;;;25.63;;
3633;SDS011;1833;42.718;23.270;2023-04-15T14:21:10;29.27;;;26.70;;
3633;SDS011;1833;42.718;23.270;2023-04-15T14:23:37;33.10;;;29.83;;
3633;SDS011;1833;42.718;23.270;2023-04-15T14:26:06;28.93;;;25.93;;
3633;SDS011;1833;42.718;23.270;2023-04-15T14:28:33;27.20;;;24.83;;
3633;SDS011;1833;42.718;23.270;2023-04-15T14:31:02;26.43;;;24.13;;
3633;SDS011;1833;42.718;23.270;2023-04-15T14:33:29;26.40;;;24.20;;
3633;SDS011;1833;42.718;23.270;2023-04-15T14:35:56;26.33;;;24.13;;
3633;SDS011;1833;42.718;23.270;2023-04-15T14:38:24;26.30;;;24.00;;
3633;SDS011;1833;42.718;23.270;2023-04-15T14:40:51;27.43;;;25.23;;
3633;SDS011;1833;42.718;23.270;2023-04-15T14:43:20;26.90;;;24.70;;
3633;SDS011;1833;42.718;23.270;2023-04-15T14:45:47;26.97;;;24.57;;